Time;durP1;ratioP1;P1;durP2;ratioP2;P2;SDS_P1;SDS_P2;PMS_P1;PMS_P2;Temp;Humidity;BMP_temperature;BMP_pressure;BME280_temperature;BME280_humidity;BME280_pressure;Samples;Min_cycle;Max_cycle;Signal;HPM_P1;HPM_P2
2022/06/12 00:00:27;;;;;;;12.25;2.70;;;20.90;75.90;;;;;;5064023;28;20040;-66
2022/06/12 00:02:53;;;;;;;11.13;2.70;;;20.80;75.80;;;;;;5064165;28;20037;-66
2022/06/12 00:05:21;;;;;;;9.70;2.78;;;20.70;75.90;;;;;;5063127;28;20044;-66
2022/06/12 00:07:47;;;;;;;11.48;3.47;;;20.80;76.00;;;;;;5064260;28;20047;-66
2022/06/12 00:10:13;;;;;;;9.55;2.60;;;20.70;75.90;;;;;;5069939;28;20025;-66
2022/06/12 00:12:42;;;;;;;14.40;2.50;;;20.70;76.00;;;;;;5055861;28;20035;-66
2022/06/12 00:15:10;;;;;;;7.03;2.33;;;20.60;76.10;;;;;;5053767;28;20044;-67
2022/06/12 00:17:38;;;;;;;9.10;2.30;;;20.60;76.10;;;;;;5055408;28;20039;-67
2022/06/12 00:20:05;;;;;;;11.95;2.70;;;20.60;76.20;;;;;;5063896;28;20032;-67
2022/06/12 00:22:30;;;;;;;12.57;2.97;;;20.60;76.20;;;;;;5064830;28;20028;-67
2022/06/12 00:24:56;;;;;;;9.77;2.20;;;20.50;76.30;;;;;;5061466;28;20446;-66
2022/06/12 00:27:22;;;;;;;12.35;2.30;;;20.50;76.30;;;;;;5069623;28;20025;-66
2022/06/12 00:29:48;;;;;;;10.13;2.45;;;20.50;76.40;;;;;;5059508;28;20036;-66
2022/06/12 00:32:16;;;;;;;12.95;2.60;;;20.40;76.40;;;;;;5061256;28;20449;-67
2022/06/12 00:34:49;;;;;;;10.00;2.28;;;20.40;76.40;;;;;;5071578;28;20025;-67
2022/06/12 00:37:17;;;;;;;10.48;2.58;;;20.40;76.60;;;;;;5068071;28;20104;-67
2022/06/12 00:39:46;;;;;;;11.15;2.60;;;20.30;76.70;;;;;;5060014;28;20061;-67
2022/06/12 00:42:23;;;;;;;13.02;2.58;;;20.30;76.90;;;;;;5068347;28;20119;-67
2022/06/12 00:44:50;;;;;;;11.73;2.70;;;20.20;76.90;;;;;;5056573;28;20158;-67
2022/06/12 00:47:16;;;;;;;8.98;2.67;;;20.20;77.00;;;;;;5070406;28;20036;-66
2022/06/12 00:50:05;;;;;;;12.82;3.38;;;20.10;77.10;;;;;;5059088;28;20029;-67
2022/06/12 00:52:41;;;;;;;10.32;2.40;;;20.10;77.20;;;;;;5069824;28;20094;-67
2022/06/12 00:55:14;;;;;;;5.70;2.08;;;20.10;77.40;;;;;;5071894;28;20024;-67
2022/06/12 00:57:40;;;;;;;8.93;2.40;;;20.00;77.30;;;;;;5070544;28;20024;-67
2022/06/12 01:00:13;;;;;;;11.35;2.38;;;20.00;77.40;;;;;;5069374;28;20135;-67
2022/06/12 01:02:40;;;;;;;7.95;2.40;;;20.00;77.40;;;;;;5070306;28;20052;-67
2022/06/12 01:07:58;;;;;;;10.07;2.65;;;19.90;77.30;;;;;;5062064;28;20035;-66
2022/06/12 01:10:28;;;;;;;13.15;2.95;;;19.90;77.40;;;;;;5073587;28;20145;-67
2022/06/12 01:13:07;;;;;;;6.20;3.08;;;19.80;77.20;;;;;;5072935;28;20523;-67
2022/06/12 01:15:38;;;;;;;8.95;2.30;;;19.80;77.30;;;;;;5059111;28;20075;-67
2022/06/12 01:18:09;;;;;;;11.52;2.53;;;19.80;77.30;;;;;;5074575;28;20028;-67
2022/06/12 01:20:48;;;;;;;8.68;2.55;;;19.80;77.40;;;;;;5060378;28;20159;-67
2022/06/12 01:23:38;;;;;;;9.27;2.45;;;19.70;77.40;;;;;;5064849;28;20488;-67
2022/06/12 01:26:39;;;;;;;9.85;2.22;;;19.70;77.40;;;;;;5054888;28;20079;-67
2022/06/12 01:29:14;;;;;;;9.52;2.55;;;19.70;77.60;;;;;;5060592;28;20035;-67
2022/06/12 01:31:52;;;;;;;14.40;2.78;;;19.60;77.50;;;;;;5071383;28;20380;-67
2022/06/12 01:34:28;;;;;;;6.85;2.25;;;19.60;77.60;;;;;;5054375;28;20029;-67
2022/06/12 01:37:20;;;;;;;8.85;2.22;;;19.50;77.60;;;;;;5071804;28;20086;-67
2022/06/12 01:40:16;;;;;;;11.20;2.67;;;19.50;77.60;;;;;;5061082;28;20044;-67
2022/06/12 01:43:03;;;;;;;9.50;2.50;;;19.50;77.80;;;;;;5053920;28;20488;-67
2022/06/12 01:45:51;;;;;;;8.07;2.42;;;19.40;77.80;;;;;;5054345;28;20040;-67
2022/06/12 01:48:49;;;;;;;11.30;2.53;;;19.40;77.90;;;;;;5066642;28;20036;-67
2022/06/12 01:51:23;;;;;;;11.98;2.13;;;19.30;77.90;;;;;;5066890;28;20112;-67
2022/06/12 01:53:56;;;;;;;7.35;2.00;;;19.30;77.90;;;;;;5065919;28;20065;-67
2022/06/12 01:56:33;;;;;;;8.70;2.30;;;19.20;78.00;;;;;;5071636;28;20384;-67
2022/06/12 01:58:59;;;;;;;10.20;2.40;;;19.20;78.10;;;;;;5072922;28;20033;-67
2022/06/12 02:01:30;;;;;;;7.68;1.98;;;19.20;78.20;;;;;;5073514;28;20121;-67
2022/06/12 02:04:16;;;;;;;8.30;2.08;;;19.10;78.20;;;;;;5059684;28;20477;-66
2022/06/12 02:06:58;;;;;;;10.23;2.08;;;19.10;78.30;;;;;;5073122;28;20040;-67
2022/06/12 02:09:32;;;;;;;6.20;1.88;;;19.00;78.30;;;;;;5060359;28;20037;-67
2022/06/12 02:15:04;;;;;;;11.43;2.50;;;19.00;78.50;;;;;;5062515;28;20071;-67
2022/06/12 02:17:40;;;;;;;8.50;2.10;;;19.00;78.50;;;;;;5056491;28;20033;-67
2022/06/12 02:20:09;;;;;;;5.30;1.80;;;18.90;78.50;;;;;;5073412;28;20033;-66
2022/06/12 02:22:39;;;;;;;10.00;2.40;;;18.90;78.50;;;;;;5068214;28;20025;-67
2022/06/12 02:25:14;;;;;;;6.85;1.77;;;18.90;78.70;;;;;;5065383;28;20049;-67
2022/06/12 02:27:50;;;;;;;9.13;1.80;;;18.80;78.70;;;;;;5062622;28;20036;-66
2022/06/12 02:30:38;;;;;;;5.93;1.85;;;18.80;78.90;;;;;;5071057;28;20035;-66
2022/06/12 02:33:14;;;;;;;7.65;1.83;;;18.70;79.10;;;;;;5072928;28;20072;-67
2022/06/12 02:35:43;;;;;;;6.68;1.90;;;18.70;79.30;;;;;;5053767;28;20469;-66
2022/06/12 02:38:14;;;;;;;6.13;1.70;;;18.70;79.40;;;;;;5067628;28;20035;-67
2022/06/12 02:40:54;;;;;;;7.75;1.77;;;18.70;79.60;;;;;;5073059;28;20032;-67
2022/06/12 02:43:27;;;;;;;9.52;1.90;;;18.60;79.60;;;;;;5072485;28;20032;-67
2022/06/12 02:45:59;;;;;;;5.68;2.03;;;18.60;79.70;;;;;;5058390;28;20158;-66
2022/06/12 02:48:26;;;;;;;6.93;2.20;;;18.60;80.50;;;;;;5060367;28;20120;-66
2022/06/12 02:51:03;;;;;;;9.90;2.88;;;18.60;79.90;;;;;;5071332;28;20036;-66
2022/06/12 02:53:39;;;;;;;6.75;1.98;;;18.60;80.00;;;;;;5064510;28;20060;-67
2022/06/12 02:56:21;;;;;;;11.32;1.90;;;18.60;80.00;;;;;;5065854;28;20491;-67
2022/06/12 02:59:02;;;;;;;5.75;2.38;;;18.50;80.00;;;;;;5052288;28;20039;-66
2022/06/12 03:01:37;;;;;;;6.95;1.88;;;18.50;80.00;;;;;;5053361;28;20405;-66
2022/06/12 03:04:15;;;;;;;11.60;2.47;;;18.50;80.60;;;;;;5067458;28;20024;-66
2022/06/12 03:06:42;;;;;;;7.40;1.80;;;18.50;80.00;;;;;;5065289;28;20078;-66
2022/06/12 03:09:08;;;;;;;11.85;2.20;;;18.50;80.00;;;;;;5071124;28;20162;-67
2022/06/12 03:11:41;;;;;;;10.82;2.72;;;18.50;80.20;;;;;;5072393;28;20050;-66
2022/06/12 03:14:14;;;;;;;10.88;2.33;;;18.40;81.10;;;;;;5065045;28;20104;-67
2022/06/12 03:16:41;;;;;;;;;;;18.40;80.50;;;;;;5069628;28;20040;-67
2022/06/12 03:19:33;;;;;;;9.10;2.20;;;18.40;80.30;;;;;;5058587;28;20320;-66
2022/06/12 03:22:17;;;;;;;11.15;2.65;;;18.30;80.40;;;;;;5066399;28;20036;-67
2022/06/12 03:24:53;;;;;;;4.82;1.77;;;18.30;80.70;;;;;;5065317;28;20060;-66
2022/06/12 03:27:43;;;;;;;8.45;2.58;;;18.20;80.70;;;;;;5071072;28;20032;-66
2022/06/12 03:30:23;;;;;;;15.25;2.83;;;18.20;80.80;;;;;;5068806;28;20033;-67
2022/06/12 03:33:02;;;;;;;7.57;2.00;;;18.10;81.00;;;;;;5069952;28;20472;-66
2022/06/12 03:35:49;;;;;;;10.23;2.70;;;18.10;81.00;;;;;;5056421;28;20033;-67
2022/06/12 03:38:36;;;;;;;10.50;2.50;;;18.20;81.20;;;;;;5052607;28;20465;-67
2022/06/12 03:41:20;;;;;;;10.98;2.53;;;18.10;81.10;;;;;;5069541;28;20035;-67
2022/06/12 03:43:59;;;;;;;13.80;2.88;;;18.10;81.10;;;;;;5071824;28;20029;-67
2022/06/12 03:46:49;;;;;;;12.65;3.20;;;18.10;81.40;;;;;;5062384;28;20404;-66
2022/06/12 03:49:32;;;;;;;14.77;2.50;;;18.00;81.40;;;;;;5058326;28;20032;-67
2022/06/12 03:52:14;;;;;;;7.57;3.13;;;18.00;81.50;;;;;;5071559;28;20037;-67
2022/06/12 03:55:10;;;;;;;6.05;2.47;;;18.00;81.50;;;;;;5070050;28;20037;-67
2022/06/12 03:57:53;;;;;;;12.27;2.35;;;18.00;81.60;;;;;;5053472;28;20021;-67
2022/06/12 04:00:39;;;;;;;10.83;2.10;;;17.90;81.70;;;;;;5053690;28;20029;-67
2022/06/12 04:03:13;;;;;;;9.05;2.10;;;17.90;81.90;;;;;;5063768;28;20384;-67
2022/06/12 04:05:42;;;;;;;4.97;1.73;;;17.90;82.60;;;;;;5071693;28;20047;-67
2022/06/12 04:08:15;;;;;;;10.38;2.03;;;17.90;82.10;;;;;;5070896;28;20483;-67
2022/06/12 04:10:41;;;;;;;11.40;2.63;;;17.90;82.30;;;;;;5072262;28;20047;-67
2022/06/12 04:13:14;;;;;;;8.30;2.63;;;17.80;82.20;;;;;;5057601;28;20029;-67
2022/06/12 04:15:43;;;;;;;7.30;2.40;;;17.80;82.50;;;;;;5066377;28;20036;-67
2022/06/12 04:18:10;;;;;;;6.68;2.15;;;17.80;82.40;;;;;;5071686;28;20033;-66
2022/06/12 04:20:49;;;;;;;8.40;2.20;;;17.80;82.50;;;;;;5071512;28;20033;-67
2022/06/12 04:23:24;;;;;;;10.32;1.90;;;17.80;82.70;;;;;;5053434;28;20071;-67
2022/06/12 04:25:55;;;;;;;8.82;2.47;;;17.80;82.80;;;;;;5058659;28;20119;-67
2022/06/12 04:28:29;;;;;;;11.10;2.78;;;17.70;82.80;;;;;;5071524;28;20024;-67
2022/06/12 04:30:56;;;;;;;14.10;2.38;;;17.80;83.00;;;;;;5061794;28;20041;-67
2022/06/12 04:33:48;;;;;;;11.77;2.78;;;17.80;83.00;;;;;;5067520;28;20032;-66
2022/06/12 04:36:14;;;;;;;8.07;2.35;;;17.80;83.20;;;;;;5070673;28;20051;-67
2022/06/12 04:38:40;;;;;;;5.38;2.00;;;17.80;83.20;;;;;;5060463;28;20068;-66
2022/06/12 04:41:07;;;;;;;10.23;2.42;;;17.80;83.30;;;;;;5074321;28;20036;-67
2022/06/12 04:43:33;;;;;;;11.80;2.60;;;17.80;83.40;;;;;;5074223;28;20036;-67
2022/06/12 04:45:59;;;;;;;8.35;2.10;;;17.80;83.60;;;;;;5074111;28;20047;-67
2022/06/12 04:48:39;;;;;;;11.63;2.55;;;17.70;83.80;;;;;;5075054;28;20040;-66
2022/06/12 04:51:07;;;;;;;9.57;2.58;;;17.80;84.10;;;;;;5073406;28;20476;-67
2022/06/12 04:53:34;;;;;;;7.57;2.03;;;17.80;84.30;;;;;;5065836;28;20037;-66
2022/06/12 04:56:00;;;;;;;11.40;2.05;;;17.80;83.80;;;;;;5067881;28;20029;-67
2022/06/12 04:58:26;;;;;;;11.80;2.63;;;17.80;84.10;;;;;;5064715;28;20024;-67
2022/06/12 05:00:52;;;;;;;7.90;2.50;;;17.80;84.30;;;;;;5072226;28;20447;-67
2022/06/12 05:03:18;;;;;;;6.40;1.80;;;17.80;84.10;;;;;;5075141;28;20024;-67
2022/06/12 05:05:44;;;;;;;12.55;2.47;;;17.80;83.70;;;;;;5071261;28;20048;-67
2022/06/12 05:08:10;;;;;;;9.68;2.30;;;17.80;83.80;;;;;;5055033;28;20043;-66
2022/06/12 05:10:36;;;;;;;11.55;2.00;;;17.80;83.70;;;;;;5070755;28;20090;-67
2022/06/12 05:13:02;;;;;;;5.55;1.95;;;17.80;83.90;;;;;;5073843;28;20042;-66
2022/06/12 05:15:29;;;;;;;12.57;2.35;;;17.80;84.00;;;;;;5071235;28;20032;-67
2022/06/12 05:17:55;;;;;;;12.35;2.42;;;17.80;83.90;;;;;;5073876;28;20035;-67
2022/06/12 05:20:29;;;;;;;10.80;2.05;;;17.80;84.20;;;;;;5072498;28;20063;-67
2022/06/12 05:22:55;;;;;;;12.65;2.70;;;17.80;84.40;;;;;;5073387;28;20035;-67
2022/06/12 05:25:21;;;;;;;13.60;2.40;;;17.80;84.20;;;;;;5068198;28;20040;-67
2022/06/12 05:27:51;;;;;;;7.95;2.30;;;17.90;84.30;;;;;;5072757;28;20013;-67
2022/06/12 05:30:21;;;;;;;11.30;2.05;;;17.80;84.50;;;;;;5071828;28;20457;-67
2022/06/12 05:32:48;;;;;;;18.23;3.08;;;17.80;84.40;;;;;;5071239;28;20030;-67
2022/06/12 05:35:15;;;;;;;15.32;3.42;;;17.80;85.10;;;;;;5073324;28;20437;-67
2022/06/12 05:37:41;;;;;;;13.15;2.95;;;17.80;85.50;;;;;;5073242;28;20024;-67
2022/06/12 05:40:11;;;;;;;11.02;2.45;;;17.80;85.30;;;;;;5072516;28;20032;-67
2022/06/12 05:42:38;;;;;;;13.07;2.50;;;17.80;85.60;;;;;;5073820;28;20029;-66
2022/06/12 05:45:06;;;;;;;17.27;2.58;;;17.80;85.90;;;;;;5072311;28;20036;-67
2022/06/12 05:47:32;;;;;;;15.25;3.03;;;17.80;86.10;;;;;;5073079;28;20024;-67
2022/06/12 05:49:59;;;;;;;12.82;2.35;;;17.90;85.90;;;;;;5068557;28;20508;-66
2022/06/12 05:52:27;;;;;;;11.75;2.13;;;17.80;86.00;;;;;;5071477;28;20077;-66
2022/06/12 05:54:53;;;;;;;20.63;2.85;;;17.80;85.60;;;;;;5071671;28;20112;-67
2022/06/12 05:57:19;;;;;;;9.68;2.83;;;17.90;86.60;;;;;;5070913;28;20043;-66
2022/06/12 05:59:44;;;;;;;10.38;2.42;;;17.90;86.40;;;;;;5070717;28;20511;-66
2022/06/12 06:02:10;;;;;;;8.93;1.83;;;17.90;86.40;;;;;;5072116;28;20048;-66
2022/06/12 06:04:36;;;;;;;15.98;2.65;;;17.90;86.40;;;;;;5072609;28;20024;-66
2022/06/12 06:07:02;;;;;;;11.18;2.38;;;17.90;86.80;;;;;;5071352;28;20056;-66
2022/06/12 06:09:28;;;;;;;23.65;2.28;;;17.90;87.30;;;;;;5071420;28;20070;-66
2022/06/12 06:11:54;;;;;;;11.13;3.28;;;17.90;87.70;;;;;;5071195;28;20031;-67
2022/06/12 06:14:21;;;;;;;17.05;2.60;;;17.90;88.00;;;;;;5070008;28;20029;-66
2022/06/12 06:16:46;;;;;;;13.18;3.35;;;17.90;88.80;;;;;;5069066;28;20020;-66
2022/06/12 06:19:14;;;;;;;23.25;3.13;;;17.90;88.80;;;;;;5065908;28;20025;-67
2022/06/12 06:21:40;;;;;;;9.90;2.53;;;18.00;89.00;;;;;;5072961;28;20024;-66
2022/06/12 06:24:08;;;;;;;7.72;2.50;;;18.00;89.00;;;;;;5069700;28;20028;-66
2022/06/12 06:26:34;;;;;;;5.07;2.00;;;18.00;89.20;;;;;;5072081;28;20063;-66
2022/06/12 06:28:59;;;;;;;4.97;1.45;;;18.00;89.20;;;;;;5070778;28;20029;-66
2022/06/12 06:31:26;;;;;;;14.88;2.70;;;18.10;89.40;;;;;;5070366;28;20035;-66
2022/06/12 06:33:54;;;;;;;11.57;3.22;;;18.10;90.00;;;;;;5068145;28;20032;-66
2022/06/12 06:36:21;;;;;;;15.45;3.05;;;18.20;90.20;;;;;;5070367;28;20061;-66
2022/06/12 06:38:50;;;;;;;13.13;2.72;;;18.20;90.30;;;;;;5071867;28;20025;-64
2022/06/12 06:41:16;;;;;;;11.50;1.80;;;18.20;90.10;;;;;;5071894;28;20122;-64
2022/06/12 06:46:26;;;;;;;3.40;1.50;;;18.20;90.20;;;;;;5070654;28;20404;-65
2022/06/12 06:48:52;;;;;;;11.60;2.53;;;18.30;90.10;;;;;;5071848;28;20059;-65
2022/06/12 06:51:19;;;;;;;8.90;1.60;;;18.30;90.50;;;;;;5061751;28;20037;-64
2022/06/12 06:53:44;;;;;;;22.42;2.30;;;18.30;90.30;;;;;;5072353;28;20033;-64
2022/06/12 06:56:15;;;;;;;6.82;1.92;;;18.40;90.40;;;;;;5072022;28;20154;-65
2022/06/12 06:58:41;;;;;;;9.93;2.25;;;18.40;90.50;;;;;;5071300;28;20101;-65
2022/06/12 07:01:07;;;;;;;20.75;4.50;;;18.40;90.40;;;;;;5067881;28;20048;-65
2022/06/12 07:03:33;;;;;;;14.73;3.03;;;18.30;90.50;;;;;;5070093;28;20392;-65
2022/06/12 07:05:59;;;;;;;17.55;2.88;;;18.40;90.70;;;;;;5071275;28;20033;-65
2022/06/12 07:08:28;;;;;;;18.55;3.53;;;18.40;90.80;;;;;;5071926;28;20044;-65
2022/06/12 07:10:55;;;;;;;2.88;1.80;;;18.40;91.10;;;;;;5072884;28;20383;-64
2022/06/12 07:13:22;;;;;;;11.10;2.55;;;18.50;90.60;;;;;;5071224;28;20468;-65
2022/06/12 07:15:48;;;;;;;3.80;1.48;;;18.50;90.80;;;;;;5068403;28;20506;-65
2022/06/12 07:18:16;;;;;;;3.72;1.30;;;18.50;90.90;;;;;;5057765;28;20025;-65
2022/06/12 07:20:50;;;;;;;7.82;1.50;;;18.50;91.00;;;;;;5059447;28;20487;-64
2022/06/12 07:23:18;;;;;;;11.65;3.05;;;18.50;91.00;;;;;;5061865;28;20021;-64
2022/06/12 07:25:49;;;;;;;19.95;3.08;;;18.50;91.20;;;;;;5055979;28;20051;-65
2022/06/12 07:28:16;;;;;;;4.15;1.63;;;18.60;91.30;;;;;;5072714;28;20029;-65
2022/06/12 07:30:42;;;;;;;8.43;1.90;;;18.60;91.10;;;;;;5071443;28;20533;-65
2022/06/12 07:33:09;;;;;;;9.40;1.98;;;18.60;91.30;;;;;;5071483;28;20040;-65
2022/06/12 07:35:37;;;;;;;18.58;3.20;;;18.70;91.30;;;;;;5059139;28;20388;-67
2022/06/12 07:38:04;;;;;;;14.25;2.97;;;18.70;91.70;;;;;;5058046;28;20082;-66
2022/06/12 07:40:42;;;;;;;12.43;3.47;;;18.70;91.60;;;;;;5069047;28;20045;-66
2022/06/12 07:43:08;;;;;;;10.95;2.17;;;18.80;91.90;;;;;;5069505;28;20028;-66
2022/06/12 07:45:35;;;;;;;18.75;3.80;;;18.80;91.60;;;;;;5061891;28;20045;-66
2022/06/12 07:48:01;;;;;;;12.88;2.75;;;18.80;91.80;;;;;;5054815;28;20025;-66
2022/06/12 07:50:27;;;;;;;9.93;2.63;;;18.90;91.70;;;;;;5072323;28;20112;-67
2022/06/12 07:52:53;;;;;;;14.63;2.22;;;19.00;91.50;;;;;;5067759;28;20548;-66
2022/06/12 07:55:19;;;;;;;3.97;1.05;;;19.00;91.80;;;;;;5061874;28;20127;-66
2022/06/12 07:57:45;;;;;;;14.27;3.00;;;19.00;91.40;;;;;;5067187;28;20039;-67
2022/06/12 08:00:13;;;;;;;9.20;1.77;;;19.10;91.60;;;;;;5062961;28;20024;-66
2022/06/12 08:02:40;;;;;;;6.80;2.08;;;19.10;91.40;;;;;;5069277;28;20048;-66
2022/06/12 08:05:07;;;;;;;17.10;2.33;;;19.20;91.40;;;;;;5062146;28;20048;-66
2022/06/12 08:07:34;;;;;;;9.32;2.75;;;19.20;91.50;;;;;;5068040;28;20029;-66
2022/06/12 08:10:00;;;;;;;12.27;1.75;;;19.20;91.30;;;;;;5057661;28;20391;-66
2022/06/12 08:12:26;;;;;;;13.98;2.28;;;19.20;91.20;;;;;;5072594;28;20024;-66
2022/06/12 08:14:54;;;;;;;12.95;3.00;;;19.30;91.30;;;;;;5060725;28;20031;-66
2022/06/12 08:17:20;;;;;;;15.35;2.75;;;19.30;91.30;;;;;;5075517;28;20086;-66
2022/06/12 08:22:31;;;;;;;6.95;1.90;;;19.40;91.30;;;;;;5070097;28;20457;-66
2022/06/12 08:24:56;;;;;;;11.73;2.33;;;19.40;91.30;;;;;;5069032;28;20036;-66
2022/06/12 08:27:22;;;;;;;13.75;2.65;;;19.50;91.40;;;;;;5074631;28;20043;-66
2022/06/12 08:29:49;;;;;;;12.88;2.90;;;19.50;91.30;;;;;;5075079;28;20117;-66
2022/06/12 08:32:19;;;;;;;5.10;1.73;;;19.60;91.30;;;;;;5068894;28;20032;-66
2022/06/12 08:34:49;;;;;;;8.38;1.73;;;19.60;91.20;;;;;;5054989;28;20029;-67
2022/06/12 08:37:32;;;;;;;11.10;2.15;;;19.60;91.20;;;;;;5074324;28;20044;-66
2022/06/12 08:39:59;;;;;;;10.75;1.75;;;19.70;91.10;;;;;;5061647;28;20472;-67
2022/06/12 08:42:50;;;;;;;5.10;2.08;;;19.80;90.80;;;;;;5075381;28;20040;-66
2022/06/12 08:45:23;;;;;;;6.85;1.20;;;19.80;90.50;;;;;;5072946;28;20115;-66
2022/06/12 08:48:02;;;;;;;4.32;0.95;;;19.80;90.40;;;;;;5066289;28;20029;-66
2022/06/12 08:50:44;;;;;;;4.35;1.38;;;19.80;90.20;;;;;;5067197;28;20037;-66
2022/06/12 08:53:16;;;;;;;4.80;1.52;;;19.90;90.20;;;;;;5074950;28;20040;-66
2022/06/12 08:55:58;;;;;;;8.15;2.40;;;19.90;90.20;;;;;;5064204;28;20468;-66
2022/06/12 08:58:54;;;;;;;6.50;1.73;;;20.00;90.20;;;;;;5067847;28;20036;-66
2022/06/12 09:01:20;;;;;;;2.65;1.15;;;20.00;90.10;;;;;;5070477;28;20396;-67
2022/06/12 09:03:53;;;;;;;8.85;1.55;;;20.10;90.30;;;;;;5065297;28;20032;-66
2022/06/12 09:06:38;;;;;;;10.30;2.65;;;20.10;90.00;;;;;;5075152;28;20048;-66
2022/06/12 09:09:16;;;;;;;4.82;1.83;;;20.20;90.00;;;;;;5060360;28;20040;-67
2022/06/12 09:12:01;;;;;;;8.77;1.98;;;20.20;90.00;;;;;;5058066;28;20428;-67
2022/06/12 09:15:02;;;;;;;7.05;1.75;;;20.20;89.80;;;;;;5073759;28;20033;-66
2022/06/12 09:17:36;;;;;;;11.52;2.10;;;20.30;89.70;;;;;;5074136;28;20472;-67
2022/06/12 09:20:39;;;;;;;9.27;1.50;;;20.30;89.60;;;;;;5067647;28;20035;-66
2022/06/12 09:23:18;;;;;;;8.40;2.28;;;20.30;89.40;;;;;;5060070;28;20036;-66
2022/06/12 09:26:28;;;;;;;8.98;2.03;;;20.40;89.10;;;;;;5069715;28;20373;-66
2022/06/12 09:29:05;;;;;;;14.93;1.98;;;20.50;89.10;;;;;;5033450;28;20039;-66
2022/06/12 09:31:47;;;;;;;6.15;1.40;;;20.50;89.10;;;;;;5072625;28;20029;-66
2022/06/12 09:34:32;;;;;;;4.07;1.10;;;20.60;89.30;;;;;;5072821;28;20056;-66
2022/06/12 09:40:32;;;;;;;5.53;2.08;;;20.60;89.30;;;;;;5071504;28;20491;-66
2022/06/12 09:43:03;;;;;;;9.75;2.42;;;20.70;89.20;;;;;;5071373;28;20082;-65
2022/06/12 09:45:45;;;;;;;11.88;2.22;;;20.70;88.80;;;;;;5073278;28;20488;-66
2022/06/12 09:48:39;;;;;;;15.25;2.78;;;20.80;88.90;;;;;;5071871;28;20391;-66
2022/06/12 09:51:47;;;;;;;12.77;2.42;;;20.90;88.60;;;;;;5055787;28;20460;-66
2022/06/12 09:54:28;;;;;;;8.15;2.83;;;21.00;88.60;;;;;;5072137;28;20036;-66
2022/06/12 09:57:03;;;;;;;11.75;1.67;;;21.00;88.60;;;;;;5070321;28;20063;-66
2022/06/12 09:59:44;;;;;;;16.38;2.72;;;21.10;88.40;;;;;;5068652;28;20448;-66
2022/06/12 10:02:36;;;;;;;7.05;1.45;;;21.10;88.00;;;;;;5068621;28;20127;-65
2022/06/12 10:05:13;;;;;;;9.15;1.60;;;21.10;88.00;;;;;;5071232;28;20028;-64
2022/06/12 10:07:48;;;;;;;3.55;1.23;;;21.10;87.50;;;;;;5071101;28;20033;-65
2022/06/12 10:10:23;;;;;;;2.70;1.42;;;21.10;87.40;;;;;;5067474;28;20040;-65
2022/06/12 10:12:58;;;;;;;12.02;2.63;;;21.10;87.40;;;;;;5073787;28;20369;-65
2022/06/12 10:15:31;;;;;;;5.93;1.58;;;21.10;87.50;;;;;;5071803;28;20380;-65
2022/06/12 10:18:10;;;;;;;7.13;1.52;;;21.00;87.20;;;;;;5072955;28;20474;-65
2022/06/12 10:20:43;;;;;;;5.25;1.63;;;21.10;87.40;;;;;;5065826;28;20046;-65
2022/06/12 10:23:09;;;;;;;4.18;1.45;;;21.10;87.00;;;;;;5067585;28;20024;-65
2022/06/12 10:25:43;;;;;;;1.95;1.48;;;21.10;87.70;;;;;;5069996;28;20158;-66
2022/06/12 10:28:15;;;;;;;6.38;0.98;;;21.10;86.50;;;;;;5069410;28;20024;-65
2022/06/12 10:30:43;;;;;;;1.55;0.90;;;21.10;85.30;;;;;;5069624;28;20035;-66
2022/06/12 10:33:23;;;;;;;3.00;1.25;;;21.10;85.30;;;;;;5072857;28;20031;-66
2022/06/12 10:35:53;;;;;;;3.03;0.95;;;21.20;84.90;;;;;;5070661;28;20464;-64
2022/06/12 10:38:21;;;;;;;4.65;1.20;;;21.10;84.40;;;;;;5072553;28;20033;-67
2022/06/12 10:40:59;;;;;;;9.07;2.38;;;21.20;85.20;;;;;;5067923;28;20028;-66
2022/06/12 10:43:38;;;;;;;2.60;1.02;;;21.20;85.50;;;;;;5066036;28;20375;-67
2022/06/12 10:46:14;;;;;;;9.68;2.65;;;21.20;85.70;;;;;;5070041;28;20033;-67
2022/06/12 10:48:42;;;;;;;3.92;1.30;;;21.30;85.10;;;;;;5072958;28;20108;-67
2022/06/12 10:51:13;;;;;;;8.48;2.22;;;21.40;85.60;;;;;;5068611;28;20037;-67
2022/06/12 10:53:58;;;;;;;6.25;2.15;;;21.50;84.90;;;;;;5068687;28;20021;-67
2022/06/12 10:56:45;;;;;;;11.77;1.95;;;21.50;85.00;;;;;;5070633;28;20040;-67
2022/06/12 10:59:26;;;;;;;7.10;1.55;;;21.60;84.10;;;;;;5065047;28;21557;-67
2022/06/12 11:02:07;;;;;;;0.98;0.70;;;21.60;84.40;;;;;;5071868;28;20052;-67
2022/06/12 11:04:59;;;;;;;6.65;1.50;;;21.60;83.50;;;;;;5061419;28;20060;-66
2022/06/12 11:07:41;;;;;;;6.18;2.03;;;21.70;83.30;;;;;;5060079;28;20071;-67
2022/06/12 11:10:25;;;;;;;2.30;1.27;;;21.60;83.50;;;;;;5054100;28;20393;-66
2022/06/12 11:13:25;;;;;;;1.60;1.08;;;21.70;84.50;;;;;;5066548;28;20024;-67
2022/06/12 11:16:16;;;;;;;5.88;1.30;;;21.80;84.30;;;;;;5061809;28;20031;-66
2022/06/12 11:19:14;;;;;;;2.33;0.77;;;21.80;83.80;;;;;;5066392;28;20039;-66
2022/06/12 11:22:05;;;;;;;2.25;1.38;;;21.80;83.10;;;;;;5070263;28;20034;-66
2022/06/12 11:24:54;;;;;;;6.07;1.73;;;21.80;82.40;;;;;;5064261;28;20029;-66
2022/06/12 11:27:47;;;;;;;3.25;1.02;;;21.80;82.00;;;;;;5071040;28;20554;-66
2022/06/12 11:30:36;;;;;;;3.63;1.13;;;21.80;81.70;;;;;;5066400;28;20082;-66
2022/06/12 11:33:18;;;;;;;2.97;0.88;;;21.90;81.80;;;;;;5064892;28;20029;-66
2022/06/12 11:36:03;;;;;;;11.30;1.98;;;21.90;81.80;;;;;;5067430;28;20457;-66
2022/06/12 11:38:38;;;;;;;3.53;1.08;;;22.00;81.40;;;;;;5063959;28;20032;-66
2022/06/12 11:41:12;;;;;;;2.25;0.98;;;22.00;82.20;;;;;;5068878;28;20099;-66
2022/06/12 11:43:49;;;;;;;0.70;0.60;;;22.00;80.70;;;;;;5067484;28;20043;-66
2022/06/12 11:46:56;;;;;;;3.60;1.00;;;22.00;80.50;;;;;;5065491;28;20554;-66
2022/06/12 11:49:36;;;;;;;9.02;0.88;;;22.10;80.60;;;;;;5070439;28;20480;-66
2022/06/12 11:52:08;;;;;;;3.25;1.27;;;22.00;79.80;;;;;;5068692;28;20125;-66
2022/06/12 11:55:01;;;;;;;0.60;0.60;;;22.10;79.30;;;;;;5068349;28;20031;-66
2022/06/12 11:57:41;;;;;;;4.07;1.10;;;22.10;79.80;;;;;;5069930;28;20454;-66
2022/06/12 12:00:19;;;;;;;1.45;0.90;;;22.10;79.60;;;;;;5068641;28;20033;-67
2022/06/12 12:03:05;;;;;;;3.70;0.98;;;22.10;79.00;;;;;;5059896;28;20531;-66
2022/06/12 12:05:52;;;;;;;3.28;1.65;;;22.20;79.10;;;;;;5068800;28;20044;-66
2022/06/12 12:08:48;;;;;;;1.02;0.95;;;22.20;78.60;;;;;;5068312;28;20040;-68
2022/06/12 12:11:27;;;;;;;1.30;0.65;;;22.10;78.80;;;;;;5070020;28;20032;-66
2022/06/12 12:13:58;;;;;;;2.55;0.90;;;22.20;78.70;;;;;;5068092;28;20025;-66
2022/06/12 12:16:43;;;;;;;2.30;0.90;;;22.20;78.40;;;;;;5070595;28;20043;-65
2022/06/12 12:19:28;;;;;;;2.17;1.13;;;22.30;78.10;;;;;;5067166;28;20033;-64
2022/06/12 12:22:01;;;;;;;3.97;1.48;;;22.30;77.60;;;;;;5065791;28;20443;-65
2022/06/12 12:24:35;;;;;;;0.82;0.82;;;22.30;76.80;;;;;;5070831;28;20377;-65
2022/06/12 12:27:04;;;;;;;3.00;1.15;;;22.30;76.40;;;;;;5069504;28;20041;-65
2022/06/12 12:29:34;;;;;;;3.13;1.45;;;22.20;76.20;;;;;;5066144;28;20480;-65
2022/06/12 12:32:04;;;;;;;1.45;0.50;;;22.30;77.20;;;;;;5068592;28;20472;-65
2022/06/12 12:34:30;;;;;;;1.75;0.75;;;22.20;77.20;;;;;;5067671;28;20025;-65
2022/06/12 12:42:37;;;;;;;5.65;1.23;;;22.40;76.70;;;;;;5069939;28;20024;-65
2022/06/12 12:45:23;;;;;;;2.00;0.70;;;22.40;76.00;;;;;;5063455;28;20033;-64
2022/06/12 12:47:59;;;;;;;1.65;0.77;;;22.40;75.10;;;;;;5064017;28;20032;-65
2022/06/12 12:50:26;;;;;;;2.78;1.05;;;22.40;75.20;;;;;;5069641;28;20376;-65
2022/06/12 12:52:56;;;;;;;2.35;1.25;;;22.50;75.40;;;;;;5066826;28;20031;-64
2022/06/12 12:55:31;;;;;;;2.35;1.30;;;22.50;75.40;;;;;;5071108;28;20048;-65
2022/06/12 12:58:01;;;;;;;4.15;1.35;;;22.50;75.40;;;;;;5058191;28;20033;-65
2022/06/12 13:00:33;;;;;;;1.88;1.10;;;22.60;75.70;;;;;;5058732;28;20090;-65
2022/06/12 13:03:04;;;;;;;2.53;1.10;;;22.70;75.80;;;;;;5070443;28;20067;-66
2022/06/12 13:05:45;;;;;;;1.65;0.60;;;22.70;76.20;;;;;;5075014;28;20448;-66
2022/06/12 13:08:27;;;;;;;5.38;0.88;;;22.80;74.90;;;;;;5060381;28;20052;-64
2022/06/12 13:11:47;;;;;;;3.92;1.25;;;22.80;75.20;;;;;;5064793;28;20082;-64
2022/06/12 13:14:15;;;;;;;8.68;2.53;;;22.90;75.20;;;;;;5053200;28;20477;-65
2022/06/12 13:17:28;;;;;;;14.65;2.75;;;23.00;77.00;;;;;;5072773;28;20064;-64
2022/06/12 13:20:22;;;;;;;7.85;2.20;;;23.00;77.90;;;;;;5054654;28;20055;-65
2022/06/12 13:22:53;;;;;;;;;;;23.20;78.20;;;;;;5065868;28;20113;-65
2022/06/12 13:25:24;;;;;;;13.35;2.38;;;23.20;78.40;;;;;;5064615;28;19979;-65
2022/06/12 13:27:58;;;;;;;9.65;2.67;;;23.30;78.10;;;;;;5061734;28;20029;-65
2022/06/12 13:30:38;;;;;;;11.38;2.95;;;23.30;77.70;;;;;;5060443;28;20112;-65
2022/06/12 13:33:20;;;;;;;11.77;2.72;;;23.40;77.90;;;;;;5059373;28;20025;-65
2022/06/12 13:35:53;;;;;;;10.45;2.60;;;23.50;78.20;;;;;;5053123;28;20067;-65
2022/06/12 13:38:18;;;;;;;8.45;2.60;;;23.50;78.00;;;;;;5055206;28;20124;-65
2022/06/12 13:40:56;;;;;;;14.35;2.50;;;23.50;77.90;;;;;;5072709;28;20107;-65